sensor_id;sensor_type;location;lat;lon;timestamp;P1;durP1;ratioP1;P2;durP2;ratioP2
50683;SDS011;36654;45.042;38.994;2023-03-01T00:01:28;14.45;;;7.35;;
50683;SDS011;36654;45.042;38.994;2023-03-01T00:03:55;12.13;;;6.78;;
50683;SDS011;36654;45.042;38.994;2023-03-01T00:06:21;14.40;;;6.88;;
50683;SDS011;36654;45.042;38.994;2023-03-01T00:08:48;10.82;;;6.95;;
50683;SDS011;36654;45.042;38.994;2023-03-01T00:11:15;12.63;;;7.55;;
50683;SDS011;36654;45.042;38.994;2023-03-01T00:13:44;14.52;;;8.15;;
50683;SDS011;36654;45.042;38.994;2023-03-01T00:16:11;14.77;;;8.18;;
50683;SDS011;36654;45.042;38.994;2023-03-01T00:18:39;14.68;;;7.47;;
50683;SDS011;36654;45.042;38.994;2023-03-01T00:21:05;16.52;;;8.50;;
50683;SDS011;36654;45.042;38.994;2023-03-01T00:23:31;13.98;;;7.63;;
50683;SDS011;36654;45.042;38.994;2023-03-01T00:25:58;12.43;;;7.72;;
50683;SDS011;36654;45.042;38.994;2023-03-01T00:28:27;12.57;;;7.82;;
50683;SDS011;36654;45.042;38.994;2023-03-01T00:30:52;14.07;;;7.38;;
50683;SDS011;36654;45.042;38.994;2023-03-01T00:33:18;14.95;;;8.27;;
50683;SDS011;36654;45.042;38.994;2023-03-01T00:35:44;14.63;;;8.30;;
50683;SDS011;36654;45.042;38.994;2023-03-01T00:38:09;13.75;;;8.23;;
50683;SDS011;36654;45.042;38.994;2023-03-01T00:40:36;14.70;;;7.82;;
50683;SDS011;36654;45.042;38.994;2023-03-01T00:43:02;13.55;;;7.43;;
50683;SDS011;36654;45.042;38.994;2023-03-01T00:45:28;13.13;;;7.47;;
50683;SDS011;36654;45.042;38.994;2023-03-01T00:47:56;12.35;;;7.25;;
50683;SDS011;36654;45.042;38.994;2023-03-01T00:50:22;15.90;;;7.45;;
50683;SDS011;36654;45.042;38.994;2023-03-01T00:52:51;13.88;;;7.07;;
50683;SDS011;36654;45.042;38.994;2023-03-01T00:55:18;13.15;;;7.78;;
50683;SDS011;36654;45.042;38.994;2023-03-01T00:57:44;15.23;;;8.02;;
50683;SDS011;36654;45.042;38.994;2023-03-01T01:00:10;13.25;;;7.55;;
50683;SDS011;36654;45.042;38.994;2023-03-01T01:02:36;15.82;;;7.85;;
50683;SDS011;36654;45.042;38.994;2023-03-01T01:05:03;13.23;;;7.45;;
50683;SDS011;36654;45.042;38.994;2023-03-01T01:07:29;13.30;;;7.38;;
50683;SDS011;36654;45.042;38.994;2023-03-01T01:09:55;12.88;;;6.85;;
50683;SDS011;36654;45.042;38.994;2023-03-01T01:12:20;16.30;;;8.45;;
50683;SDS011;36654;45.042;38.994;2023-03-01T01:14:46;16.40;;;8.65;;
50683;SDS011;36654;45.042;38.994;2023-03-01T01:17:11;13.52;;;7.97;;
50683;SDS011;36654;45.042;38.994;2023-03-01T01:19:37;14.88;;;9.20;;
50683;SDS011;36654;45.042;38.994;2023-03-01T01:22:02;17.05;;;7.93;;
50683;SDS011;36654;45.042;38.994;2023-03-01T01:24:28;15.35;;;8.80;;
50683;SDS011;36654;45.042;38.994;2023-03-01T01:26:54;15.43;;;8.52;;
50683;SDS011;36654;45.042;38.994;2023-03-01T01:29:20;15.30;;;8.13;;
50683;SDS011;36654;45.042;38.994;2023-03-01T01:31:46;13.98;;;8.05;;
50683;SDS011;36654;45.042;38.994;2023-03-01T01:34:18;17.35;;;8.68;;
50683;SDS011;36654;45.042;38.994;2023-03-01T01:36:52;14.82;;;8.20;;
50683;SDS011;36654;45.042;38.994;2023-03-01T01:39:19;13.65;;;8.13;;
50683;SDS011;36654;45.042;38.994;2023-03-01T01:41:45;17.38;;;9.23;;
50683;SDS011;36654;45.042;38.994;2023-03-01T01:47:07;16.88;;;8.95;;
50683;SDS011;36654;45.042;38.994;2023-03-01T01:52:16;16.90;;;9.95;;
50683;SDS011;36654;45.042;38.994;2023-03-01T01:57:28;13.75;;;8.18;;
50683;SDS011;36654;45.042;38.994;2023-03-01T02:00:04;19.45;;;9.45;;
50683;SDS011;36654;45.042;38.994;2023-03-01T02:02:33;15.70;;;9.93;;
50683;SDS011;36654;45.042;38.994;2023-03-01T02:05:01;16.42;;;8.95;;
50683;SDS011;36654;45.042;38.994;2023-03-01T02:07:35;14.15;;;7.97;;
50683;SDS011;36654;45.042;38.994;2023-03-01T02:10:04;17.08;;;9.13;;
50683;SDS011;36654;45.042;38.994;2023-03-01T02:12:30;15.88;;;8.75;;
50683;SDS011;36654;45.042;38.994;2023-03-01T02:14:56;15.52;;;9.13;;
50683;SDS011;36654;45.042;38.994;2023-03-01T02:17:22;15.68;;;8.57;;
50683;SDS011;36654;45.042;38.994;2023-03-01T02:22:37;17.58;;;10.10;;
50683;SDS011;36654;45.042;38.994;2023-03-01T02:30:27;19.38;;;10.10;;
50683;SDS011;36654;45.042;38.994;2023-03-01T02:32:54;16.77;;;9.25;;
50683;SDS011;36654;45.042;38.994;2023-03-01T02:35:28;17.33;;;9.77;;
50683;SDS011;36654;45.042;38.994;2023-03-01T02:37:57;18.77;;;9.75;;
50683;SDS011;36654;45.042;38.994;2023-03-01T02:40:25;18.05;;;9.65;;
50683;SDS011;36654;45.042;38.994;2023-03-01T02:42:55;17.02;;;10.45;;
50683;SDS011;36654;45.042;38.994;2023-03-01T02:45:23;15.98;;;9.48;;
50683;SDS011;36654;45.042;38.994;2023-03-01T02:47:50;18.58;;;10.10;;
50683;SDS011;36654;45.042;38.994;2023-03-01T02:52:57;18.27;;;9.93;;
50683;SDS011;36654;45.042;38.994;2023-03-01T02:55:45;18.30;;;9.63;;
50683;SDS011;36654;45.042;38.994;2023-03-01T02:58:10;19.85;;;10.02;;
50683;SDS011;36654;45.042;38.994;2023-03-01T03:00:37;15.60;;;9.27;;
50683;SDS011;36654;45.042;38.994;2023-03-01T03:05:44;16.92;;;9.95;;
50683;SDS011;36654;45.042;38.994;2023-03-01T03:08:10;20.52;;;10.82;;
50683;SDS011;36654;45.042;38.994;2023-03-01T03:10:38;21.40;;;10.40;;
50683;SDS011;36654;45.042;38.994;2023-03-01T03:13:12;20.27;;;11.30;;
50683;SDS011;36654;45.042;38.994;2023-03-01T03:15:38;18.10;;;10.23;;
50683;SDS011;36654;45.042;38.994;2023-03-01T03:18:06;20.67;;;10.70;;
50683;SDS011;36654;45.042;38.994;2023-03-01T03:20:38;21.02;;;10.02;;
50683;SDS011;36654;45.042;38.994;2023-03-01T03:23:06;22.08;;;11.25;;
50683;SDS011;36654;45.042;38.994;2023-03-01T03:25:32;20.15;;;9.90;;
50683;SDS011;36654;45.042;38.994;2023-03-01T03:27:57;24.55;;;11.60;;
50683;SDS011;36654;45.042;38.994;2023-03-01T03:30:30;21.73;;;11.60;;
50683;SDS011;36654;45.042;38.994;2023-03-01T03:32:57;18.70;;;10.73;;
50683;SDS011;36654;45.042;38.994;2023-03-01T03:35:25;22.67;;;11.38;;
50683;SDS011;36654;45.042;38.994;2023-03-01T03:37:56;22.17;;;11.40;;
50683;SDS011;36654;45.042;38.994;2023-03-01T03:40:35;23.65;;;11.55;;
50683;SDS011;36654;45.042;38.994;2023-03-01T03:43:22;23.00;;;11.65;;
50683;SDS011;36654;45.042;38.994;2023-03-01T03:45:48;21.52;;;11.30;;
50683;SDS011;36654;45.042;38.994;2023-03-01T03:48:15;21.08;;;11.20;;
50683;SDS011;36654;45.042;38.994;2023-03-01T03:50:46;20.92;;;11.68;;
50683;SDS011;36654;45.042;38.994;2023-03-01T03:53:14;20.65;;;10.95;;
50683;SDS011;36654;45.042;38.994;2023-03-01T03:55:39;22.92;;;10.57;;
50683;SDS011;36654;45.042;38.994;2023-03-01T03:58:06;20.63;;;11.18;;
50683;SDS011;36654;45.042;38.994;2023-03-01T04:00:34;22.58;;;11.50;;
50683;SDS011;36654;45.042;38.994;2023-03-01T04:03:01;27.73;;;13.23;;
50683;SDS011;36654;45.042;38.994;2023-03-01T04:05:27;20.70;;;10.23;;
50683;SDS011;36654;45.042;38.994;2023-03-01T04:07:53;18.80;;;10.10;;
50683;SDS011;36654;45.042;38.994;2023-03-01T04:10:26;18.73;;;10.40;;
50683;SDS011;36654;45.042;38.994;2023-03-01T04:12:56;19.10;;;10.65;;
50683;SDS011;36654;45.042;38.994;2023-03-01T04:15:22;20.83;;;10.60;;
50683;SDS011;36654;45.042;38.994;2023-03-01T04:17:49;22.08;;;10.68;;
50683;SDS011;36654;45.042;38.994;2023-03-01T04:20:18;21.23;;;11.70;;
50683;SDS011;36654;45.042;38.994;2023-03-01T04:22:50;22.75;;;11.77;;
50683;SDS011;36654;45.042;38.994;2023-03-01T04:25:24;22.40;;;10.63;;
50683;SDS011;36654;45.042;38.994;2023-03-01T04:27:50;19.73;;;10.27;;
50683;SDS011;36654;45.042;38.994;2023-03-01T04:30:16;23.45;;;10.90;;
50683;SDS011;36654;45.042;38.994;2023-03-01T04:32:41;24.92;;;11.93;;
50683;SDS011;36654;45.042;38.994;2023-03-01T04:35:07;24.80;;;11.32;;
50683;SDS011;36654;45.042;38.994;2023-03-01T04:37:33;20.50;;;10.35;;
50683;SDS011;36654;45.042;38.994;2023-03-01T04:40:00;19.92;;;11.27;;
50683;SDS011;36654;45.042;38.994;2023-03-01T04:42:33;26.17;;;11.95;;
50683;SDS011;36654;45.042;38.994;2023-03-01T04:44:58;22.52;;;11.43;;
50683;SDS011;36654;45.042;38.994;2023-03-01T04:47:24;21.95;;;10.95;;
50683;SDS011;36654;45.042;38.994;2023-03-01T04:49:49;19.02;;;10.68;;
50683;SDS011;36654;45.042;38.994;2023-03-01T04:52:15;19.75;;;11.50;;
50683;SDS011;36654;45.042;38.994;2023-03-01T04:54:40;22.95;;;11.20;;
50683;SDS011;36654;45.042;38.994;2023-03-01T04:57:06;20.73;;;10.65;;
50683;SDS011;36654;45.042;38.994;2023-03-01T04:59:31;20.27;;;10.32;;
50683;SDS011;36654;45.042;38.994;2023-03-01T05:01:57;18.08;;;10.13;;
50683;SDS011;36654;45.042;38.994;2023-03-01T05:04:23;20.15;;;10.38;;
50683;SDS011;36654;45.042;38.994;2023-03-01T05:06:49;19.45;;;9.98;;
50683;SDS011;36654;45.042;38.994;2023-03-01T05:09:15;20.88;;;11.15;;
50683;SDS011;36654;45.042;38.994;2023-03-01T05:11:42;19.88;;;10.27;;
50683;SDS011;36654;45.042;38.994;2023-03-01T05:14:08;18.23;;;10.23;;
50683;SDS011;36654;45.042;38.994;2023-03-01T05:16:34;21.77;;;11.85;;
50683;SDS011;36654;45.042;38.994;2023-03-01T05:19:01;23.05;;;11.77;;
50683;SDS011;36654;45.042;38.994;2023-03-01T05:21:39;24.88;;;12.00;;
50683;SDS011;36654;45.042;38.994;2023-03-01T05:24:23;21.95;;;11.18;;
50683;SDS011;36654;45.042;38.994;2023-03-01T05:26:49;22.70;;;11.70;;
50683;SDS011;36654;45.042;38.994;2023-03-01T05:29:17;18.38;;;10.13;;
50683;SDS011;36654;45.042;38.994;2023-03-01T05:31:59;16.95;;;9.70;;
50683;SDS011;36654;45.042;38.994;2023-03-01T05:34:32;20.75;;;10.90;;
50683;SDS011;36654;45.042;38.994;2023-03-01T05:37:00;21.02;;;10.80;;
50683;SDS011;36654;45.042;38.994;2023-03-01T05:39:27;19.80;;;10.02;;
50683;SDS011;36654;45.042;38.994;2023-03-01T05:41:55;21.63;;;9.90;;
50683;SDS011;36654;45.042;38.994;2023-03-01T05:44:22;22.95;;;10.73;;
50683;SDS011;36654;45.042;38.994;2023-03-01T05:46:49;21.55;;;11.50;;
50683;SDS011;36654;45.042;38.994;2023-03-01T05:49:15;19.67;;;10.27;;
50683;SDS011;36654;45.042;38.994;2023-03-01T05:51:41;21.08;;;11.65;;
50683;SDS011;36654;45.042;38.994;2023-03-01T05:54:08;20.42;;;11.57;;
50683;SDS011;36654;45.042;38.994;2023-03-01T05:56:35;30.92;;;15.38;;
50683;SDS011;36654;45.042;38.994;2023-03-01T05:59:02;28.90;;;12.35;;
50683;SDS011;36654;45.042;38.994;2023-03-01T06:01:30;19.85;;;10.90;;
50683;SDS011;36654;45.042;38.994;2023-03-01T06:03:55;21.08;;;11.88;;
50683;SDS011;36654;45.042;38.994;2023-03-01T06:06:22;21.63;;;11.68;;
50683;SDS011;36654;45.042;38.994;2023-03-01T06:08:48;23.10;;;11.95;;
50683;SDS011;36654;45.042;38.994;2023-03-01T06:11:13;25.65;;;11.82;;
50683;SDS011;36654;45.042;38.994;2023-03-01T06:13:40;24.27;;;11.43;;
50683;SDS011;36654;45.042;38.994;2023-03-01T06:16:07;20.73;;;10.80;;
50683;SDS011;36654;45.042;38.994;2023-03-01T06:18:33;20.85;;;11.10;;
50683;SDS011;36654;45.042;38.994;2023-03-01T06:20:58;27.55;;;12.98;;
50683;SDS011;36654;45.042;38.994;2023-03-01T06:23:24;24.63;;;12.45;;
50683;SDS011;36654;45.042;38.994;2023-03-01T06:25:50;21.25;;;10.75;;
50683;SDS011;36654;45.042;38.994;2023-03-01T06:28:16;22.27;;;11.60;;
50683;SDS011;36654;45.042;38.994;2023-03-01T06:30:41;27.88;;;13.57;;
50683;SDS011;36654;45.042;38.994;2023-03-01T06:33:07;25.02;;;12.82;;
50683;SDS011;36654;45.042;38.994;2023-03-01T06:35:33;25.98;;;12.63;;
50683;SDS011;36654;45.042;38.994;2023-03-01T06:38:00;31.85;;;15.20;;
50683;SDS011;36654;45.042;38.994;2023-03-01T06:40:27;43.47;;;21.55;;
50683;SDS011;36654;45.042;38.994;2023-03-01T06:42:53;25.08;;;14.63;;
50683;SDS011;36654;45.042;38.994;2023-03-01T06:45:19;27.20;;;13.82;;
50683;SDS011;36654;45.042;38.994;2023-03-01T06:47:45;25.13;;;12.93;;
50683;SDS011;36654;45.042;38.994;2023-03-01T06:50:11;34.97;;;17.08;;
50683;SDS011;36654;45.042;38.994;2023-03-01T06:52:37;23.92;;;13.18;;
50683;SDS011;36654;45.042;38.994;2023-03-01T06:55:03;21.13;;;12.77;;
50683;SDS011;36654;45.042;38.994;2023-03-01T06:57:30;24.00;;;11.45;;
50683;SDS011;36654;45.042;38.994;2023-03-01T06:59:56;24.45;;;12.00;;
50683;SDS011;36654;45.042;38.994;2023-03-01T07:02:21;22.52;;;12.38;;
50683;SDS011;36654;45.042;38.994;2023-03-01T07:04:48;26.10;;;14.38;;
50683;SDS011;36654;45.042;38.994;2023-03-01T07:07:15;36.72;;;17.13;;
50683;SDS011;36654;45.042;38.994;2023-03-01T07:09:43;26.70;;;13.45;;
50683;SDS011;36654;45.042;38.994;2023-03-01T07:12:11;32.13;;;16.38;;
50683;SDS011;36654;45.042;38.994;2023-03-01T07:14:37;30.45;;;14.38;;
50683;SDS011;36654;45.042;38.994;2023-03-01T07:17:02;25.15;;;12.40;;
50683;SDS011;36654;45.042;38.994;2023-03-01T07:19:28;26.23;;;13.50;;
50683;SDS011;36654;45.042;38.994;2023-03-01T07:21:54;29.00;;;13.73;;
50683;SDS011;36654;45.042;38.994;2023-03-01T07:24:21;23.00;;;11.68;;
50683;SDS011;36654;45.042;38.994;2023-03-01T07:26:50;22.25;;;12.27;;
50683;SDS011;36654;45.042;38.994;2023-03-01T07:29:17;25.58;;;11.95;;
50683;SDS011;36654;45.042;38.994;2023-03-01T07:31:43;21.33;;;12.38;;
50683;SDS011;36654;45.042;38.994;2023-03-01T07:34:09;20.27;;;11.57;;
50683;SDS011;36654;45.042;38.994;2023-03-01T07:36:36;24.35;;;12.68;;
50683;SDS011;36654;45.042;38.994;2023-03-01T07:39:02;21.13;;;11.73;;
50683;SDS011;36654;45.042;38.994;2023-03-01T07:41:28;21.08;;;11.55;;
50683;SDS011;36654;45.042;38.994;2023-03-01T07:43:54;24.02;;;11.75;;
50683;SDS011;36654;45.042;38.994;2023-03-01T07:46:20;22.48;;;12.75;;
50683;SDS011;36654;45.042;38.994;2023-03-01T07:48:46;21.33;;;12.88;;
50683;SDS011;36654;45.042;38.994;2023-03-01T07:51:12;27.15;;;13.73;;
50683;SDS011;36654;45.042;38.994;2023-03-01T07:53:38;22.85;;;11.60;;
50683;SDS011;36654;45.042;38.994;2023-03-01T07:56:05;22.25;;;12.20;;
50683;SDS011;36654;45.042;38.994;2023-03-01T07:58:40;22.02;;;11.23;;
50683;SDS011;36654;45.042;38.994;2023-03-01T08:01:08;18.77;;;11.73;;
50683;SDS011;36654;45.042;38.994;2023-03-01T08:06:03;36.08;;;17.27;;
50683;SDS011;36654;45.042;38.994;2023-03-01T08:08:30;22.27;;;13.30;;
50683;SDS011;36654;45.042;38.994;2023-03-01T08:10:57;20.48;;;11.60;;
50683;SDS011;36654;45.042;38.994;2023-03-01T08:13:26;21.88;;;11.77;;
50683;SDS011;36654;45.042;38.994;2023-03-01T08:15:53;20.80;;;10.43;;
50683;SDS011;36654;45.042;38.994;2023-03-01T08:18:19;20.95;;;10.93;;
50683;SDS011;36654;45.042;38.994;2023-03-01T08:20:45;21.33;;;11.20;;
50683;SDS011;36654;45.042;38.994;2023-03-01T08:23:11;18.35;;;10.63;;
50683;SDS011;36654;45.042;38.994;2023-03-01T08:25:37;19.75;;;11.38;;
50683;SDS011;36654;45.042;38.994;2023-03-01T08:28:03;19.67;;;11.25;;
50683;SDS011;36654;45.042;38.994;2023-03-01T08:30:30;22.55;;;11.70;;
50683;SDS011;36654;45.042;38.994;2023-03-01T08:32:55;22.23;;;13.35;;
50683;SDS011;36654;45.042;38.994;2023-03-01T08:35:21;26.17;;;12.77;;
50683;SDS011;36654;45.042;38.994;2023-03-01T08:37:47;25.73;;;12.57;;
50683;SDS011;36654;45.042;38.994;2023-03-01T08:40:13;21.83;;;10.95;;
50683;SDS011;36654;45.042;38.994;2023-03-01T08:42:40;23.42;;;12.77;;
50683;SDS011;36654;45.042;38.994;2023-03-01T08:45:08;21.23;;;12.02;;
50683;SDS011;36654;45.042;38.994;2023-03-01T08:47:34;20.73;;;12.90;;
50683;SDS011;36654;45.042;38.994;2023-03-01T08:50:00;21.15;;;12.48;;
50683;SDS011;36654;45.042;38.994;2023-03-01T08:52:26;21.75;;;11.02;;
50683;SDS011;36654;45.042;38.994;2023-03-01T08:54:52;21.15;;;11.90;;
50683;SDS011;36654;45.042;38.994;2023-03-01T08:57:17;25.45;;;12.70;;
50683;SDS011;36654;45.042;38.994;2023-03-01T08:59:43;23.48;;;11.55;;
50683;SDS011;36654;45.042;38.994;2023-03-01T09:02:13;23.02;;;11.50;;
50683;SDS011;36654;45.042;38.994;2023-03-01T09:04:41;20.05;;;10.52;;
50683;SDS011;36654;45.042;38.994;2023-03-01T09:07:07;17.98;;;9.80;;
50683;SDS011;36654;45.042;38.994;2023-03-01T09:09:33;20.23;;;11.95;;
50683;SDS011;36654;45.042;38.994;2023-03-01T09:11:59;19.08;;;10.43;;
50683;SDS011;36654;45.042;38.994;2023-03-01T09:14:26;18.35;;;9.73;;
50683;SDS011;36654;45.042;38.994;2023-03-01T09:16:51;16.08;;;9.02;;
50683;SDS011;36654;45.042;38.994;2023-03-01T09:19:17;28.27;;;14.98;;
50683;SDS011;36654;45.042;38.994;2023-03-01T09:21:43;26.75;;;12.82;;
50683;SDS011;36654;45.042;38.994;2023-03-01T09:24:17;27.15;;;13.77;;
50683;SDS011;36654;45.042;38.994;2023-03-01T09:26:45;16.80;;;10.35;;
50683;SDS011;36654;45.042;38.994;2023-03-01T09:29:11;16.23;;;9.55;;
50683;SDS011;36654;45.042;38.994;2023-03-01T09:31:37;16.77;;;9.07;;
50683;SDS011;36654;45.042;38.994;2023-03-01T09:34:03;20.67;;;10.50;;
50683;SDS011;36654;45.042;38.994;2023-03-01T09:36:29;17.63;;;9.63;;
50683;SDS011;36654;45.042;38.994;2023-03-01T09:38:54;19.70;;;10.57;;
50683;SDS011;36654;45.042;38.994;2023-03-01T09:41:31;16.80;;;9.60;;
50683;SDS011;36654;45.042;38.994;2023-03-01T09:44:20;19.83;;;10.25;;
50683;SDS011;36654;45.042;38.994;2023-03-01T09:46:53;19.33;;;10.75;;
50683;SDS011;36654;45.042;38.994;2023-03-01T09:49:22;26.90;;;13.18;;
50683;SDS011;36654;45.042;38.994;2023-03-01T09:54:24;26.08;;;10.73;;
50683;SDS011;36654;45.042;38.994;2023-03-01T09:57:09;21.35;;;11.25;;
50683;SDS011;36654;45.042;38.994;2023-03-01T10:02:26;20.65;;;10.20;;
50683;SDS011;36654;45.042;38.994;2023-03-01T10:10:34;17.95;;;9.00;;
50683;SDS011;36654;45.042;38.994;2023-03-01T10:13:14;20.10;;;10.40;;
50683;SDS011;36654;45.042;38.994;2023-03-01T10:15:47;19.17;;;11.05;;
50683;SDS011;36654;45.042;38.994;2023-03-01T10:18:22;20.50;;;11.00;;
50683;SDS011;36654;45.042;38.994;2023-03-01T10:23:51;16.77;;;10.40;;
50683;SDS011;36654;45.042;38.994;2023-03-01T10:29:17;17.02;;;10.00;;
50683;SDS011;36654;45.042;38.994;2023-03-01T10:31:50;16.85;;;9.60;;
50683;SDS011;36654;45.042;38.994;2023-03-01T10:34:35;17.42;;;9.98;;
50683;SDS011;36654;45.042;38.994;2023-03-01T10:37:14;19.08;;;9.27;;
50683;SDS011;36654;45.042;38.994;2023-03-01T10:42:46;17.88;;;9.65;;
50683;SDS011;36654;45.042;38.994;2023-03-01T10:48:08;18.60;;;9.75;;
50683;SDS011;36654;45.042;38.994;2023-03-01T10:50:39;17.92;;;10.65;;
50683;SDS011;36654;45.042;38.994;2023-03-01T10:53:32;14.63;;;8.68;;
50683;SDS011;36654;45.042;38.994;2023-03-01T10:56:10;15.80;;;8.90;;
50683;SDS011;36654;45.042;38.994;2023-03-01T10:58:39;16.48;;;8.88;;
50683;SDS011;36654;45.042;38.994;2023-03-01T11:03:39;18.15;;;9.85;;
50683;SDS011;36654;45.042;38.994;2023-03-01T11:08:41;17.17;;;9.57;;
50683;SDS011;36654;45.042;38.994;2023-03-01T11:16:24;17.65;;;9.43;;
50683;SDS011;36654;45.042;38.994;2023-03-01T11:24:26;14.52;;;8.70;;
50683;SDS011;36654;45.042;38.994;2023-03-01T11:26:57;18.48;;;9.55;;
50683;SDS011;36654;45.042;38.994;2023-03-01T11:29:30;19.80;;;10.35;;
50683;SDS011;36654;45.042;38.994;2023-03-01T11:32:01;20.75;;;10.00;;
50683;SDS011;36654;45.042;38.994;2023-03-01T11:34:46;15.30;;;8.82;;
50683;SDS011;36654;45.042;38.994;2023-03-01T11:37:34;21.75;;;9.02;;
50683;SDS011;36654;45.042;38.994;2023-03-01T11:40:21;15.45;;;8.50;;
50683;SDS011;36654;45.042;38.994;2023-03-01T11:45:18;17.10;;;8.48;;
50683;SDS011;36654;45.042;38.994;2023-03-01T11:47:51;16.02;;;8.15;;
50683;SDS011;36654;45.042;38.994;2023-03-01T11:50:42;15.52;;;8.57;;
50683;SDS011;36654;45.042;38.994;2023-03-01T12:12:24;15.50;;;9.15;;
50683;SDS011;36654;45.042;38.994;2023-03-01T12:20:22;17.60;;;9.57;;
50683;SDS011;36654;45.042;38.994;2023-03-01T12:23:00;21.65;;;10.82;;
50683;SDS011;36654;45.042;38.994;2023-03-01T12:28:04;18.98;;;10.43;;
50683;SDS011;36654;45.042;38.994;2023-03-01T12:34:21;15.63;;;7.70;;
50683;SDS011;36654;45.042;38.994;2023-03-01T12:42:02;17.38;;;8.05;;
50683;SDS011;36654;45.042;38.994;2023-03-01T12:44:42;17.25;;;7.45;;
50683;SDS011;36654;45.042;38.994;2023-03-01T12:48:08;16.23;;;8.55;;
50683;SDS011;36654;45.042;38.994;2023-03-01T12:50:20;13.73;;;7.75;;
50683;SDS011;36654;45.042;38.994;2023-03-01T12:52:53;14.70;;;6.35;;
50683;SDS011;36654;45.042;38.994;2023-03-01T12:58:04;13.82;;;6.72;;
50683;SDS011;36654;45.042;38.994;2023-03-01T13:00:56;12.90;;;7.15;;
50683;SDS011;36654;45.042;38.994;2023-03-01T13:03:31;17.23;;;7.88;;
50683;SDS011;36654;45.042;38.994;2023-03-01T13:06:26;18.27;;;8.55;;
50683;SDS011;36654;45.042;38.994;2023-03-01T13:11:25;16.80;;;8.38;;
50683;SDS011;36654;45.042;38.994;2023-03-01T13:13:51;15.93;;;8.30;;
50683;SDS011;36654;45.042;38.994;2023-03-01T13:19:08;20.15;;;9.02;;
50683;SDS011;36654;45.042;38.994;2023-03-01T13:21:45;20.17;;;9.57;;
50683;SDS011;36654;45.042;38.994;2023-03-01T13:29:43;20.33;;;10.07;;
50683;SDS011;36654;45.042;38.994;2023-03-01T13:32:19;19.38;;;10.02;;
50683;SDS011;36654;45.042;38.994;2023-03-01T13:34:55;23.60;;;10.00;;
50683;SDS011;36654;45.042;38.994;2023-03-01T13:37:29;21.60;;;10.02;;
50683;SDS011;36654;45.042;38.994;2023-03-01T13:40:01;28.13;;;10.32;;
50683;SDS011;36654;45.042;38.994;2023-03-01T13:45:16;22.58;;;11.60;;
50683;SDS011;36654;45.042;38.994;2023-03-01T13:47:49;19.67;;;10.70;;
50683;SDS011;36654;45.042;38.994;2023-03-01T13:50:26;20.00;;;10.43;;
50683;SDS011;36654;45.042;38.994;2023-03-01T13:52:58;21.95;;;11.07;;
50683;SDS011;36654;45.042;38.994;2023-03-01T14:01:04;21.63;;;11.38;;
50683;SDS011;36654;45.042;38.994;2023-03-01T14:03:32;31.95;;;13.82;;
50683;SDS011;36654;45.042;38.994;2023-03-01T14:08:32;27.30;;;13.40;;
50683;SDS011;36654;45.042;38.994;2023-03-01T14:13:46;33.25;;;15.93;;
50683;SDS011;36654;45.042;38.994;2023-03-01T14:19:15;38.53;;;17.85;;
50683;SDS011;36654;45.042;38.994;2023-03-01T14:21:43;23.05;;;11.57;;
50683;SDS011;36654;45.042;38.994;2023-03-01T14:24:20;19.02;;;10.18;;
50683;SDS011;36654;45.042;38.994;2023-03-01T14:26:47;27.75;;;11.38;;
50683;SDS011;36654;45.042;38.994;2023-03-01T14:32:10;23.48;;;11.93;;
50683;SDS011;36654;45.042;38.994;2023-03-01T14:34:46;27.60;;;14.27;;
50683;SDS011;36654;45.042;38.994;2023-03-01T14:39:56;16.92;;;9.48;;
50683;SDS011;36654;45.042;38.994;2023-03-01T14:42:23;19.85;;;10.35;;
50683;SDS011;36654;45.042;38.994;2023-03-01T14:44:53;16.60;;;9.60;;
50683;SDS011;36654;45.042;38.994;2023-03-01T14:47:32;16.60;;;9.25;;
50683;SDS011;36654;45.042;38.994;2023-03-01T14:53:00;22.65;;;11.93;;
50683;SDS011;36654;45.042;38.994;2023-03-01T14:57:54;25.05;;;14.27;;
50683;SDS011;36654;45.042;38.994;2023-03-01T15:00:21;26.45;;;13.30;;
50683;SDS011;36654;45.042;38.994;2023-03-01T15:02:50;22.27;;;12.57;;
50683;SDS011;36654;45.042;38.994;2023-03-01T15:05:20;24.02;;;12.13;;
50683;SDS011;36654;45.042;38.994;2023-03-01T15:07:58;23.17;;;12.55;;
50683;SDS011;36654;45.042;38.994;2023-03-01T15:10:27;21.38;;;12.52;;
50683;SDS011;36654;45.042;38.994;2023-03-01T15:12:55;20.85;;;11.57;;
50683;SDS011;36654;45.042;38.994;2023-03-01T15:15:35;22.27;;;12.57;;
50683;SDS011;36654;45.042;38.994;2023-03-01T15:18:27;25.60;;;13.32;;
50683;SDS011;36654;45.042;38.994;2023-03-01T15:20:54;20.25;;;10.98;;
50683;SDS011;36654;45.042;38.994;2023-03-01T15:23:30;20.45;;;11.15;;
50683;SDS011;36654;45.042;38.994;2023-03-01T15:25:56;21.90;;;11.68;;
50683;SDS011;36654;45.042;38.994;2023-03-01T15:28:42;25.10;;;12.98;;
50683;SDS011;36654;45.042;38.994;2023-03-01T15:31:19;22.50;;;13.07;;
50683;SDS011;36654;45.042;38.994;2023-03-01T15:33:48;24.63;;;13.48;;
50683;SDS011;36654;45.042;38.994;2023-03-01T15:39:02;28.13;;;13.70;;
50683;SDS011;36654;45.042;38.994;2023-03-01T15:41:32;26.50;;;12.80;;
50683;SDS011;36654;45.042;38.994;2023-03-01T15:49:25;28.73;;;15.38;;
50683;SDS011;36654;45.042;38.994;2023-03-01T15:52:32;29.63;;;14.05;;
50683;SDS011;36654;45.042;38.994;2023-03-01T15:55:05;28.55;;;15.68;;
50683;SDS011;36654;45.042;38.994;2023-03-01T15:57:39;25.80;;;14.35;;
50683;SDS011;36654;45.042;38.994;2023-03-01T16:00:05;28.67;;;14.43;;
50683;SDS011;36654;45.042;38.994;2023-03-01T16:02:36;21.75;;;12.75;;
50683;SDS011;36654;45.042;38.994;2023-03-01T16:05:03;25.02;;;12.90;;
50683;SDS011;36654;45.042;38.994;2023-03-01T16:07:29;22.25;;;12.73;;
50683;SDS011;36654;45.042;38.994;2023-03-01T16:09:56;27.48;;;13.75;;
50683;SDS011;36654;45.042;38.994;2023-03-01T16:12:22;20.45;;;12.30;;
50683;SDS011;36654;45.042;38.994;2023-03-01T16:14:49;23.83;;;12.45;;
50683;SDS011;36654;45.042;38.994;2023-03-01T16:17:15;24.45;;;13.35;;
50683;SDS011;36654;45.042;38.994;2023-03-01T16:19:41;22.38;;;12.50;;
50683;SDS011;36654;45.042;38.994;2023-03-01T16:22:06;19.67;;;12.00;;
50683;SDS011;36654;45.042;38.994;2023-03-01T16:24:34;25.08;;;12.30;;
50683;SDS011;36654;45.042;38.994;2023-03-01T16:27:01;24.92;;;13.00;;
50683;SDS011;36654;45.042;38.994;2023-03-01T16:29:27;22.83;;;11.88;;
50683;SDS011;36654;45.042;38.994;2023-03-01T16:31:54;24.88;;;12.27;;
50683;SDS011;36654;45.042;38.994;2023-03-01T16:34:20;21.52;;;11.32;;
50683;SDS011;36654;45.042;38.994;2023-03-01T16:36:46;25.40;;;12.00;;
50683;SDS011;36654;45.042;38.994;2023-03-01T16:39:12;19.63;;;10.48;;
50683;SDS011;36654;45.042;38.994;2023-03-01T16:41:38;17.88;;;10.73;;
50683;SDS011;36654;45.042;38.994;2023-03-01T16:44:04;21.15;;;11.80;;
50683;SDS011;36654;45.042;38.994;2023-03-01T16:46:30;23.38;;;11.70;;
50683;SDS011;36654;45.042;38.994;2023-03-01T16:48:56;20.10;;;12.32;;
50683;SDS011;36654;45.042;38.994;2023-03-01T16:51:22;21.35;;;11.02;;
50683;SDS011;36654;45.042;38.994;2023-03-01T16:53:49;20.73;;;11.50;;
50683;SDS011;36654;45.042;38.994;2023-03-01T16:56:16;22.02;;;11.60;;